Time;durP1;ratioP1;P1;durP2;ratioP2;P2;SDS_P1;SDS_P2;PMS_P1;PMS_P2;Temp;Humidity;BMP_temperature;BMP_pressure;BME280_temperature;BME280_humidity;BME280_pressure;Samples;Min_cycle;Max_cycle;Signal;HPM_P1;HPM_P2
2021/05/28 00:01:52;;;;;;;6.20;4.20;;;16.50;44.20;;;;;;5099951;28;20413;-87
2021/05/28 00:04:18;;;;;;;5.60;3.67;;;16.60;43.40;;;;;;5099278;28;20411;-87
2021/05/28 00:06:45;;;;;;;8.37;4.00;;;16.60;43.80;;;;;;5099774;28;20435;-87
2021/05/28 00:09:12;;;;;;;4.53;3.80;;;16.50;43.80;;;;;;5099557;28;20986;-87
2021/05/28 00:11:39;;;;;;;10.13;4.27;;;16.50;44.40;;;;;;5100343;28;20442;-87
2021/05/28 00:14:06;;;;;;;5.77;3.90;;;16.70;43.80;;;;;;5099868;28;20544;-87
2021/05/28 00:16:32;;;;;;;5.93;3.43;;;16.70;43.20;;;;;;5100949;28;20487;-87
2021/05/28 00:18:59;;;;;;;4.83;4.20;;;16.80;43.10;;;;;;5101743;28;20443;-87
2021/05/28 00:21:25;;;;;;;3.37;3.20;;;16.90;43.10;;;;;;5119163;28;20457;-87
2021/05/28 00:23:52;;;;;;;7.43;4.03;;;17.00;43.60;;;;;;5119475;28;20481;-87
2021/05/28 00:26:19;;;;;;;8.10;4.07;;;17.10;41.90;;;;;;5113812;28;20443;-87
2021/05/28 00:28:49;;;;;;;4.60;3.17;;;16.90;42.10;;;;;;5101290;28;20872;-87
2021/05/28 00:31:15;;;;;;;5.17;3.83;;;16.90;43.30;;;;;;5113912;28;20414;-86
2021/05/28 00:33:42;;;;;;;6.70;3.83;;;16.90;43.10;;;;;;5118649;28;20453;-86
2021/05/28 00:36:08;;;;;;;5.30;3.80;;;16.50;43.10;;;;;;5118551;28;20474;-86
2021/05/28 00:38:35;;;;;;;4.83;3.70;;;16.20;43.90;;;;;;5118394;28;20433;-87
2021/05/28 00:41:02;;;;;;;9.80;3.50;;;16.20;44.00;;;;;;5095561;28;20455;-87
2021/05/28 00:43:28;;;;;;;8.03;4.20;;;16.60;43.40;;;;;;5095190;28;20450;-87
2021/05/28 00:45:55;;;;;;;6.17;4.10;;;16.80;43.00;;;;;;5094854;28;20480;-87
2021/05/28 00:48:21;;;;;;;6.90;4.00;;;16.60;43.30;;;;;;5094890;28;20500;-87
2021/05/28 00:50:48;;;;;;;17.27;8.17;;;16.80;43.50;;;;;;5094711;28;20450;-87
2021/05/28 00:53:16;;;;;;;7.10;5.10;;;16.70;43.80;;;;;;5095028;28;20462;-87
2021/05/28 00:55:42;;;;;;;11.20;4.10;;;16.30;45.40;;;;;;5094713;28;20971;-87
2021/05/28 00:58:10;;;;;;;5.43;4.00;;;16.30;45.20;;;;;;5095270;28;20545;-87
2021/05/28 01:00:37;;;;;;;13.53;5.90;;;16.40;44.90;;;;;;5094870;28;20531;-87
2021/05/28 01:03:04;;;;;;;4.70;4.03;;;16.50;44.80;;;;;;5094047;28;20475;-87
2021/05/28 01:05:32;;;;;;;7.40;4.73;;;16.50;44.60;;;;;;5094453;28;20468;-86
2021/05/28 01:07:58;;;;;;;9.83;4.70;;;16.50;45.00;;;;;;5094224;28;20508;-86
2021/05/28 01:10:25;;;;;;;16.60;5.80;;;16.30;45.20;;;;;;5094338;28;20460;-86
2021/05/28 01:12:51;;;;;;;31.07;6.93;;;16.70;44.40;;;;;;5097394;28;20479;-86
2021/05/28 01:15:18;;;;;;;12.17;4.90;;;16.70;44.20;;;;;;5116527;28;20482;-86
2021/05/28 01:17:45;;;;;;;16.13;6.73;;;16.50;44.70;;;;;;5098025;28;20427;-86
2021/05/28 01:20:12;;;;;;;11.47;6.00;;;16.70;44.10;;;;;;5096181;28;20437;-86
2021/05/28 01:22:40;;;;;;;8.77;5.47;;;16.70;44.10;;;;;;5094951;28;21123;-86
2021/05/28 01:25:07;;;;;;;4.87;3.63;;;16.90;43.80;;;;;;5095166;28;20496;-86
2021/05/28 01:27:34;;;;;;;13.70;6.10;;;16.80;44.00;;;;;;5094904;28;20487;-86
2021/05/28 01:30:01;;;;;;;5.10;3.83;;;16.70;43.70;;;;;;5094339;28;20433;-86
2021/05/28 01:32:27;;;;;;;10.03;4.50;;;16.60;44.00;;;;;;5095543;28;20461;-86
2021/05/28 01:34:54;;;;;;;5.23;3.93;;;16.60;44.10;;;;;;5095396;28;20486;-86
2021/05/28 01:37:20;;;;;;;9.53;5.07;;;16.50;44.00;;;;;;5094519;28;20476;-87
2021/05/28 01:39:49;;;;;;;6.43;4.47;;;16.40;45.00;;;;;;5094625;28;20524;-87
2021/05/28 01:42:16;;;;;;;13.97;7.30;;;16.20;44.70;;;;;;5093561;28;20470;-87
2021/05/28 01:44:42;;;;;;;9.80;6.23;;;16.30;45.30;;;;;;5093732;28;20438;-87
2021/05/28 01:47:09;;;;;;;17.57;7.70;;;16.20;45.50;;;;;;5093567;28;20907;-87
2021/05/28 01:49:39;;;;;;;11.23;6.07;;;16.30;45.80;;;;;;5093784;28;20428;-87
2021/05/28 01:52:06;;;;;;;17.20;6.80;;;16.30;45.60;;;;;;5094917;28;20459;-86
2021/05/28 01:54:34;;;;;;;7.97;5.03;;;16.40;45.50;;;;;;5094137;28;20583;-86
2021/05/28 01:57:01;;;;;;;8.50;5.40;;;16.50;45.30;;;;;;5094262;28;20449;-87
2021/05/28 01:59:28;;;;;;;9.37;6.50;;;16.60;45.00;;;;;;5094431;28;20452;-87
2021/05/28 02:01:55;;;;;;;7.13;5.03;;;16.70;44.70;;;;;;5094409;28;20443;-87
2021/05/28 02:04:22;;;;;;;7.47;6.23;;;16.60;45.30;;;;;;5097717;28;20528;-87
2021/05/28 02:06:49;;;;;;;6.70;5.60;;;16.60;44.80;;;;;;5098406;28;20448;-87
2021/05/28 02:09:16;;;;;;;7.20;5.87;;;16.50;45.40;;;;;;5098292;28;20459;-87
2021/05/28 02:11:42;;;;;;;8.73;6.17;;;16.40;45.70;;;;;;5098018;28;20573;-87
2021/05/28 02:14:10;;;;;;;8.13;5.00;;;16.50;45.50;;;;;;5110317;28;20476;-87
2021/05/28 02:16:38;;;;;;;5.47;4.73;;;16.60;45.20;;;;;;5105412;28;20566;-87
2021/05/28 02:19:06;;;;;;;7.70;5.80;;;16.50;45.10;;;;;;5104546;28;20443;-87
2021/05/28 02:21:33;;;;;;;10.50;6.17;;;16.30;45.70;;;;;;5105152;28;20441;-87
2021/05/28 02:24:00;;;;;;;13.47;7.33;;;16.40;45.90;;;;;;5102836;28;20465;-88
2021/05/28 02:26:26;;;;;;;9.23;5.63;;;16.50;45.90;;;;;;5102522;28;20447;-87
2021/05/28 02:28:53;;;;;;;9.00;5.80;;;16.40;45.80;;;;;;5102287;28;20433;-87
2021/05/28 02:31:20;;;;;;;9.20;5.07;;;16.50;45.60;;;;;;5104840;28;20522;-86
2021/05/28 02:33:46;;;;;;;7.27;5.20;;;16.60;45.10;;;;;;5099808;28;20462;-87
2021/05/28 02:36:13;;;;;;;7.43;5.40;;;16.50;45.50;;;;;;5100692;28;20915;-87
2021/05/28 02:38:39;;;;;;;8.13;5.33;;;16.40;45.50;;;;;;5099977;28;20447;-87
2021/05/28 02:41:06;;;;;;;8.30;5.43;;;16.50;45.60;;;;;;5100558;28;20418;-87
2021/05/28 02:43:34;;;;;;;11.17;5.07;;;16.50;45.70;;;;;;5104521;28;20468;-86
2021/05/28 02:46:00;;;;;;;7.80;4.93;;;16.40;45.90;;;;;;5106919;28;20667;-86
2021/05/28 02:48:27;;;;;;;6.53;5.17;;;16.30;45.90;;;;;;5104393;28;20446;-86
2021/05/28 02:50:54;;;;;;;6.90;5.40;;;16.20;46.10;;;;;;5098765;28;20456;-87
2021/05/28 02:53:20;;;;;;;8.23;5.13;;;16.10;46.50;;;;;;5098609;28;20467;-87
2021/05/28 02:55:47;;;;;;;10.53;4.80;;;15.90;47.00;;;;;;5098778;28;20570;-87
2021/05/28 02:58:13;;;;;;;5.90;5.10;;;16.00;46.80;;;;;;5099551;28;20448;-86
2021/05/28 03:00:40;;;;;;;5.13;4.60;;;15.90;46.80;;;;;;5099605;28;20966;-87
2021/05/28 03:03:06;;;;;;;7.07;5.63;;;16.20;46.60;;;;;;5099954;28;20537;-86
2021/05/28 03:05:33;;;;;;;8.77;5.53;;;16.60;45.90;;;;;;5099068;28;20460;-86
2021/05/28 03:08:00;;;;;;;9.50;5.97;;;16.70;45.30;;;;;;5098271;28;20452;-86
2021/05/28 03:10:26;;;;;;;8.80;5.43;;;16.60;45.20;;;;;;5096994;28;20918;-86
2021/05/28 03:12:53;;;;;;;6.13;5.20;;;16.60;45.50;;;;;;5097062;28;20580;-87
2021/05/28 03:15:19;;;;;;;9.93;5.70;;;16.30;46.00;;;;;;5095945;28;20512;-86
2021/05/28 03:17:46;;;;;;;7.37;5.27;;;16.30;46.30;;;;;;5096270;28;20516;-86
2021/05/28 03:20:22;;;;;;;5.93;5.37;;;16.00;47.00;;;;;;5096569;28;20471;-86
2021/05/28 03:22:50;;;;;;;5.87;4.80;;;16.00;47.10;;;;;;5097630;28;20894;-87
2021/05/28 03:25:17;;;;;;;8.23;5.60;;;16.20;46.80;;;;;;5098092;28;20798;-87
2021/05/28 03:27:44;;;;;;;6.30;5.10;;;16.10;47.10;;;;;;5098708;28;20455;-87
2021/05/28 03:30:12;;;;;;;9.80;4.90;;;16.00;47.40;;;;;;5101927;28;20435;-86
2021/05/28 03:32:39;;;;;;;7.17;5.00;;;15.90;47.40;;;;;;5100588;28;20455;-86
2021/05/28 03:35:07;;;;;;;7.57;5.70;;;16.00;47.30;;;;;;5098003;28;20480;-86
2021/05/28 03:37:33;;;;;;;7.17;5.63;;;16.10;47.10;;;;;;5099564;28;20477;-86
2021/05/28 03:40:01;;;;;;;7.40;5.80;;;16.50;46.50;;;;;;5104566;28;20435;-86
2021/05/28 03:42:27;;;;;;;12.90;6.53;;;16.70;46.50;;;;;;5102037;28;21008;-86
2021/05/28 03:44:54;;;;;;;10.33;6.00;;;16.70;45.90;;;;;;5101475;28;20452;-86
2021/05/28 03:47:21;;;;;;;7.40;6.10;;;16.60;46.00;;;;;;5104205;28;20480;-87
2021/05/28 03:49:47;;;;;;;10.50;6.17;;;16.40;46.10;;;;;;5103716;28;20488;-87
2021/05/28 03:52:14;;;;;;;7.67;5.70;;;16.10;47.00;;;;;;5102435;28;20450;-86
2021/05/28 03:54:41;;;;;;;6.83;5.10;;;16.50;47.00;;;;;;5098727;28;20994;-86
2021/05/28 03:57:09;;;;;;;6.47;4.63;;;16.70;46.00;;;;;;5098670;28;20513;-87
2021/05/28 03:59:35;;;;;;;5.43;4.63;;;16.60;45.80;;;;;;5098632;28;20897;-87
2021/05/28 04:02:02;;;;;;;9.87;5.33;;;16.30;46.30;;;;;;5097756;28;20474;-87
2021/05/28 04:04:29;;;;;;;14.00;5.10;;;15.80;47.10;;;;;;5095926;28;20441;-87
2021/05/28 04:06:55;;;;;;;7.63;5.03;;;15.50;47.90;;;;;;5095966;28;20444;-87
2021/05/28 04:09:22;;;;;;;9.50;5.63;;;15.40;48.50;;;;;;5095733;28;20933;-87
2021/05/28 04:11:48;;;;;;;8.17;4.70;;;15.10;48.70;;;;;;5095884;28;20471;-86
2021/05/28 04:14:15;;;;;;;8.40;5.23;;;14.70;49.70;;;;;;5095989;28;20496;-87
2021/05/28 04:16:42;;;;;;;7.10;5.30;;;14.80;49.80;;;;;;5095935;28;20522;-87
2021/05/28 04:19:09;;;;;;;8.33;5.10;;;14.90;49.70;;;;;;5095379;28;20431;-87
2021/05/28 04:21:35;;;;;;;9.20;5.77;;;15.10;49.30;;;;;;5095655;28;20478;-88
2021/05/28 04:24:02;;;;;;;11.97;6.30;;;15.40;48.50;;;;;;5095204;28;20462;-87
2021/05/28 04:26:29;;;;;;;7.97;5.47;;;15.70;48.00;;;;;;5095328;28;20432;-87
2021/05/28 04:28:55;;;;;;;14.40;5.57;;;15.90;47.70;;;;;;5095391;28;20451;-87
2021/05/28 04:31:22;;;;;;;11.23;5.33;;;16.00;47.30;;;;;;5095319;28;20451;-87
2021/05/28 04:33:50;;;;;;;7.53;6.00;;;16.10;46.80;;;;;;5095162;28;20547;-87
2021/05/28 04:36:16;;;;;;;11.77;8.50;;;16.30;46.50;;;;;;5095215;28;20577;-88
2021/05/28 04:38:42;;;;;;;7.63;5.80;;;16.50;46.30;;;;;;5095362;28;20472;-87
2021/05/28 04:41:09;;;;;;;10.20;6.43;;;16.30;46.30;;;;;;5094817;28;20947;-87
2021/05/28 04:43:35;;;;;;;10.80;5.30;;;16.40;46.40;;;;;;5094808;28;20466;-87
2021/05/28 04:46:02;;;;;;;11.37;5.43;;;16.60;46.30;;;;;;5094515;28;20528;-87
2021/05/28 04:48:29;;;;;;;6.67;4.87;;;16.70;45.80;;;;;;5096146;28;20520;-87
2021/05/28 04:50:56;;;;;;;12.07;4.87;;;16.80;45.80;;;;;;5096743;28;20535;-87
2021/05/28 04:53:22;;;;;;;8.60;5.23;;;16.80;45.50;;;;;;5096318;28;21036;-86
2021/05/28 04:55:48;;;;;;;5.60;5.20;;;16.50;46.20;;;;;;5097588;28;20515;-86
2021/05/28 04:58:15;;;;;;;12.80;5.60;;;16.60;46.10;;;;;;5099539;28;20476;-86
2021/05/28 05:00:41;;;;;;;6.80;6.17;;;16.70;45.90;;;;;;5095364;28;20450;-87
2021/05/28 05:03:08;;;;;;;6.87;5.27;;;16.80;45.60;;;;;;5094486;28;20473;-86
2021/05/28 05:05:35;;;;;;;7.40;5.40;;;16.80;45.80;;;;;;5095197;28;20440;-86
2021/05/28 05:08:01;;;;;;;7.83;4.50;;;17.00;45.40;;;;;;5094965;28;20921;-86
2021/05/28 05:10:28;;;;;;;6.00;4.77;;;17.20;45.40;;;;;;5095009;28;20450;-86
2021/05/28 05:12:54;;;;;;;10.97;4.83;;;17.50;44.50;;;;;;5094768;28;20466;-86
2021/05/28 05:15:21;;;;;;;7.67;4.20;;;17.60;44.10;;;;;;5094803;28;20485;-87
2021/05/28 05:17:47;;;;;;;7.00;4.60;;;17.50;44.50;;;;;;5094768;28;20481;-87
2021/05/28 05:20:14;;;;;;;6.20;4.87;;;17.80;43.60;;;;;;5095461;28;21023;-86
2021/05/28 05:22:42;;;;;;;7.10;5.33;;;18.10;42.80;;;;;;5097372;28;20474;-87
2021/05/28 05:25:09;;;;;;;6.57;4.40;;;18.20;42.60;;;;;;5098213;28;20533;-87
2021/05/28 05:27:35;;;;;;;7.50;5.10;;;18.30;42.90;;;;;;5101795;28;20438;-86
2021/05/28 05:30:02;;;;;;;5.90;4.90;;;18.50;42.40;;;;;;5101006;28;20474;-87
2021/05/28 05:32:29;;;;;;;10.80;4.80;;;18.70;42.10;;;;;;5101464;28;20490;-87
2021/05/28 05:34:56;;;;;;;9.47;4.70;;;18.90;41.20;;;;;;5105064;28;20508;-86
2021/05/28 05:37:22;;;;;;;7.73;4.90;;;18.90;40.80;;;;;;5113308;28;20427;-86
2021/05/28 05:39:50;;;;;;;5.80;4.50;;;19.00;41.00;;;;;;5102017;28;20449;-86
2021/05/28 05:42:16;;;;;;;14.17;5.97;;;19.20;40.80;;;;;;5099513;28;20477;-86
2021/05/28 05:44:43;;;;;;;6.83;5.37;;;19.50;42.30;;;;;;5099121;28;20557;-86
2021/05/28 05:47:09;;;;;;;7.80;4.70;;;20.60;41.50;;;;;;5106777;28;20430;-85
2021/05/28 05:49:36;;;;;;;8.30;4.80;;;21.80;37.60;;;;;;5118375;28;20447;-84
2021/05/28 05:52:03;;;;;;;6.80;4.90;;;22.00;36.50;;;;;;5118601;28;20492;-87
2021/05/28 05:54:30;;;;;;;9.23;4.10;;;22.90;35.50;;;;;;5107674;28;20451;-86
2021/05/28 05:56:57;;;;;;;9.60;4.80;;;23.40;35.30;;;;;;5104664;28;20542;-86
2021/05/28 05:59:24;;;;;;;9.60;5.03;;;23.80;34.90;;;;;;5118357;28;20480;-86
2021/05/28 06:01:51;;;;;;;10.00;6.10;;;24.40;33.70;;;;;;5117345;28;20474;-86
2021/05/28 06:04:17;;;;;;;12.20;5.90;;;24.80;32.50;;;;;;5118032;28;20449;-86
2021/05/28 06:06:44;;;;;;;8.63;6.00;;;25.40;32.00;;;;;;5112495;28;20465;-86
2021/05/28 06:09:10;;;;;;;8.87;5.00;;;25.20;32.10;;;;;;5112955;28;20438;-86
2021/05/28 06:11:39;;;;;;;8.63;6.30;;;25.60;31.90;;;;;;5107675;28;20525;-86
2021/05/28 06:14:06;;;;;;;9.00;6.67;;;26.40;29.70;;;;;;5096094;28;20459;-88
2021/05/28 06:16:33;;;;;;;15.73;7.20;;;26.40;30.10;;;;;;5096133;28;21033;-88
2021/05/28 06:18:59;;;;;;;13.77;7.50;;;27.10;28.60;;;;;;5095748;28;20453;-87
2021/05/28 06:21:26;;;;;;;12.43;7.37;;;26.90;28.60;;;;;;5095302;28;20439;-87
2021/05/28 06:23:53;;;;;;;8.10;6.40;;;27.80;26.80;;;;;;5095059;28;20454;-87
2021/05/28 06:26:19;;;;;;;10.23;7.23;;;26.60;28.40;;;;;;5096391;28;20435;-86
2021/05/28 06:28:46;;;;;;;7.77;6.40;;;25.70;28.70;;;;;;5102025;28;20473;-86
2021/05/28 06:31:13;;;;;;;11.97;6.47;;;24.30;30.00;;;;;;5103404;28;20449;-87
2021/05/28 06:33:39;;;;;;;8.67;6.00;;;22.90;32.40;;;;;;5100709;28;20868;-87
2021/05/28 06:36:06;;;;;;;11.40;5.50;;;22.40;32.00;;;;;;5098773;28;20455;-87
2021/05/28 06:38:32;;;;;;;9.40;6.37;;;22.10;32.60;;;;;;5096463;28;20430;-88
2021/05/28 06:40:59;;;;;;;8.60;5.77;;;21.60;33.30;;;;;;5094350;28;20794;-87
2021/05/28 06:43:26;;;;;;;9.57;6.47;;;21.70;33.80;;;;;;5093926;28;20975;-87
2021/05/28 06:45:52;;;;;;;13.63;6.50;;;21.90;33.60;;;;;;5094813;28;20451;-87
2021/05/28 06:48:20;;;;;;;11.77;5.70;;;21.40;35.70;;;;;;5095015;28;20478;-88
2021/05/28 06:50:46;;;;;;;10.70;6.40;;;22.10;34.90;;;;;;5101269;28;20469;-88
2021/05/28 06:53:13;;;;;;;8.90;5.93;;;23.70;32.20;;;;;;5104703;28;20450;-88
2021/05/28 06:55:39;;;;;;;11.37;6.70;;;24.60;30.80;;;;;;5102197;28;20482;-88
2021/05/28 06:58:07;;;;;;;9.07;5.80;;;25.40;30.10;;;;;;5098322;28;20450;-88
2021/05/28 07:00:33;;;;;;;8.80;6.00;;;25.70;28.40;;;;;;5097910;28;20450;-88
2021/05/28 07:03:00;;;;;;;7.23;5.77;;;27.10;28.20;;;;;;5097484;28;20478;-88
2021/05/28 07:05:28;;;;;;;8.03;5.37;;;27.40;26.40;;;;;;5097216;28;20493;-88
2021/05/28 07:07:55;;;;;;;9.80;6.60;;;26.60;26.90;;;;;;5097113;28;20533;-88
2021/05/28 07:10:22;;;;;;;13.83;6.77;;;25.50;28.80;;;;;;5099068;28;20507;-87
2021/05/28 07:12:49;;;;;;;8.57;6.17;;;24.00;29.50;;;;;;5100264;28;20450;-87
2021/05/28 07:15:16;;;;;;;5.40;4.57;;;23.20;31.00;;;;;;5101578;28;20572;-87
2021/05/28 07:17:43;;;;;;;9.07;6.47;;;23.30;32.80;;;;;;5100013;28;20478;-88
2021/05/28 07:20:10;;;;;;;7.07;5.53;;;23.60;30.60;;;;;;5099505;28;20482;-89
2021/05/28 07:22:37;;;;;;;7.37;5.30;;;23.10;31.20;;;;;;5100883;28;21006;-87
2021/05/28 07:25:04;;;;;;;9.43;6.07;;;22.60;32.10;;;;;;5097147;28;20525;-86
2021/05/28 07:27:31;;;;;;;9.90;6.77;;;22.50;32.30;;;;;;5109362;28;20466;-86
2021/05/28 07:29:57;;;;;;;10.20;5.70;;;22.00;33.30;;;;;;5119884;28;20443;-86
2021/05/28 07:32:24;;;;;;;9.60;6.20;;;22.90;34.30;;;;;;5120065;28;20450;-86
2021/05/28 07:34:51;;;;;;;7.70;5.70;;;23.90;30.80;;;;;;5120344;28;20423;-86
2021/05/28 07:37:17;;;;;;;14.23;7.33;;;24.30;30.40;;;;;;5120441;28;20463;-86
2021/05/28 07:39:44;;;;;;;9.60;6.40;;;23.90;30.00;;;;;;5120390;28;20462;-86
2021/05/28 07:42:15;;;;;;;13.43;5.93;;;23.30;30.70;;;;;;5112588;28;20462;-86
2021/05/28 07:44:41;;;;;;;11.20;6.50;;;22.80;31.70;;;;;;5096853;28;20430;-86
2021/05/28 07:47:08;;;;;;;10.93;5.80;;;22.40;32.00;;;;;;5096508;28;20447;-86
2021/05/28 07:49:34;;;;;;;8.73;5.77;;;22.10;32.80;;;;;;5097117;28;20988;-87
2021/05/28 07:52:01;;;;;;;7.63;5.57;;;22.20;32.90;;;;;;5096192;28;20529;-87
2021/05/28 07:54:27;;;;;;;8.43;5.97;;;22.20;32.80;;;;;;5095920;28;20453;-86
2021/05/28 07:56:54;;;;;;;9.20;6.10;;;22.00;33.30;;;;;;5096714;28;20482;-86
2021/05/28 07:59:21;;;;;;;8.20;5.80;;;22.20;33.70;;;;;;5096864;28;20473;-86
2021/05/28 08:01:47;;;;;;;10.63;7.10;;;22.20;33.50;;;;;;5095237;28;20482;-87
2021/05/28 08:04:14;;;;;;;9.63;5.50;;;22.50;32.80;;;;;;5096031;28;20582;-87
2021/05/28 08:06:40;;;;;;;7.80;5.83;;;22.70;32.20;;;;;;5098026;28;20482;-87
2021/05/28 08:09:07;;;;;;;9.10;5.83;;;23.00;32.50;;;;;;5096431;28;20481;-86
2021/05/28 08:11:33;;;;;;;11.40;5.47;;;23.60;31.00;;;;;;5096661;28;20458;-86
2021/05/28 08:14:01;;;;;;;7.23;5.03;;;24.90;30.40;;;;;;5117289;28;20458;-86
2021/05/28 08:16:27;;;;;;;11.23;5.30;;;25.80;27.90;;;;;;5118902;28;20470;-86
2021/05/28 08:18:54;;;;;;;5.63;4.77;;;26.30;27.40;;;;;;5115007;28;20799;-86
2021/05/28 08:21:20;;;;;;;7.63;4.70;;;26.00;27.20;;;;;;5118161;28;20453;-86
2021/05/28 08:23:47;;;;;;;7.23;5.40;;;25.60;27.80;;;;;;5118691;28;20488;-86
2021/05/28 08:26:14;;;;;;;7.50;5.13;;;25.50;27.80;;;;;;5118301;28;20449;-85
2021/05/28 08:28:40;;;;;;;6.63;5.10;;;23.40;29.90;;;;;;5117901;28;20462;-86
2021/05/28 08:31:10;;;;;;;13.17;5.57;;;23.50;30.20;;;;;;5118585;28;20466;-85
2021/05/28 08:33:37;;;;;;;6.70;5.17;;;23.20;30.20;;;;;;5118047;28;20446;-86
2021/05/28 08:36:05;;;;;;;11.07;5.30;;;23.10;31.10;;;;;;5115461;28;20482;-85
2021/05/28 08:38:32;;;;;;;7.87;4.90;;;22.90;30.70;;;;;;5116429;28;20456;-89
2021/05/28 08:40:58;;;;;;;8.50;5.40;;;23.10;31.10;;;;;;5119205;28;20466;-89
2021/05/28 08:43:25;;;;;;;11.00;5.90;;;22.90;31.20;;;;;;5113026;28;20455;-90
2021/05/28 08:45:52;;;;;;;7.77;5.10;;;22.10;32.40;;;;;;5108724;28;20483;-90
2021/05/28 08:48:20;;;;;;;8.80;4.97;;;21.40;33.20;;;;;;5098357;28;20475;-90
2021/05/28 08:50:49;;;;;;;8.47;5.50;;;21.90;32.70;;;;;;5095767;28;20426;-90
2021/05/28 08:53:16;;;;;;;5.73;4.50;;;21.50;32.70;;;;;;5095664;28;20549;-90
2021/05/28 08:55:43;;;;;;;6.10;4.67;;;22.30;31.90;;;;;;5095476;28;20517;-90
2021/05/28 08:58:12;;;;;;;12.13;4.90;;;22.60;31.20;;;;;;5095613;28;20461;-90
2021/05/28 09:00:39;;;;;;;10.50;4.93;;;22.50;31.10;;;;;;5095486;28;20522;-91
2021/05/28 09:03:25;;;;;;;11.50;4.77;;;22.10;31.60;;;;;;5095229;28;20525;-90
2021/05/28 09:05:53;;;;;;;16.40;5.50;;;22.30;31.20;;;;;;5095821;28;20954;-91
2021/05/28 09:08:30;;;;;;;7.17;5.07;;;21.10;32.90;;;;;;5099313;28;20477;-91
2021/05/28 09:11:05;;;;;;;11.83;5.37;;;20.10;34.50;;;;;;5099626;28;20423;-91
2021/05/28 09:13:32;;;;;;;11.83;4.57;;;19.50;34.90;;;;;;5096909;28;20469;-89
2021/05/28 09:16:10;;;;;;;12.10;4.83;;;20.20;33.90;;;;;;5098415;28;20478;-90
2021/05/28 09:18:48;;;;;;;11.93;5.13;;;20.60;33.90;;;;;;5096355;28;20460;-87
2021/05/28 09:21:21;;;;;;;5.97;5.20;;;20.40;34.20;;;;;;5096787;28;20469;-86
2021/05/28 09:23:47;;;;;;;6.90;4.97;;;20.40;34.10;;;;;;5101277;28;20454;-87
2021/05/28 09:26:14;;;;;;;11.60;5.20;;;20.90;33.50;;;;;;5096042;28;20482;-86
2021/05/28 09:28:43;;;;;;;11.80;5.70;;;21.30;33.30;;;;;;5097610;28;20446;-87
2021/05/28 09:31:13;;;;;;;11.70;5.47;;;21.70;32.00;;;;;;5097083;28;20447;-85
2021/05/28 09:33:44;;;;;;;10.27;5.17;;;21.80;31.90;;;;;;5096989;28;20461;-87
2021/05/28 09:36:13;;;;;;;7.97;4.43;;;22.10;31.60;;;;;;5096202;28;20549;-86
2021/05/28 09:38:52;;;;;;;16.50;5.63;;;21.90;31.50;;;;;;5096303;28;20435;-87
2021/05/28 09:41:37;;;;;;;8.83;5.73;;;21.70;32.20;;;;;;5095879;28;20503;-86
2021/05/28 09:44:15;;;;;;;10.50;5.13;;;21.10;32.20;;;;;;5096289;28;20470;-85
2021/05/28 09:47:04;;;;;;;12.80;5.20;;;20.10;33.40;;;;;;5095625;28;20422;-85
2021/05/28 09:49:33;;;;;;;10.43;5.30;;;20.30;34.10;;;;;;5095411;28;20453;-85
2021/05/28 09:52:12;;;;;;;11.33;5.53;;;20.20;34.10;;;;;;5094451;28;20442;-85
2021/05/28 09:54:39;;;;;;;12.33;5.50;;;20.20;33.90;;;;;;5094883;28;20427;-85
2021/05/28 09:57:06;;;;;;;12.40;4.93;;;20.30;33.30;;;;;;5094828;28;20479;-85
2021/05/28 09:59:44;;;;;;;9.50;5.20;;;19.90;33.60;;;;;;5094076;28;20434;-85
2021/05/28 10:02:24;;;;;;;9.10;4.87;;;19.80;34.30;;;;;;5094780;28;20462;-85
2021/05/28 10:04:56;;;;;;;7.83;5.43;;;20.60;34.30;;;;;;5095455;28;20438;-85
2021/05/28 10:07:24;;;;;;;11.00;6.23;;;21.10;33.30;;;;;;5094491;28;20533;-85
2021/05/28 10:09:52;;;;;;;9.43;4.53;;;21.60;31.20;;;;;;5095049;28;20454;-86
2021/05/28 10:12:19;;;;;;;7.70;4.37;;;22.10;31.70;;;;;;5094595;28;20458;-85
2021/05/28 10:14:46;;;;;;;7.40;4.77;;;22.30;31.50;;;;;;5095035;28;20474;-85
2021/05/28 10:17:13;;;;;;;6.77;4.37;;;21.80;30.50;;;;;;5095844;28;20845;-85
2021/05/28 10:19:41;;;;;;;10.83;4.83;;;20.70;32.30;;;;;;5095150;28;20489;-85
2021/05/28 10:22:09;;;;;;;9.77;4.90;;;20.60;33.40;;;;;;5095319;28;20466;-85
2021/05/28 10:24:36;;;;;;;6.40;4.40;;;20.60;32.80;;;;;;5097559;28;20556;-85
2021/05/28 10:27:03;;;;;;;8.50;4.80;;;20.50;31.90;;;;;;5099275;28;20479;-85
2021/05/28 10:29:30;;;;;;;6.67;5.40;;;20.10;32.60;;;;;;5099299;28;20462;-85
2021/05/28 10:31:58;;;;;;;11.70;5.07;;;20.50;31.50;;;;;;5100652;28;20453;-86
2021/05/28 10:34:26;;;;;;;10.53;4.30;;;20.50;31.90;;;;;;5101789;28;20484;-87
2021/05/28 10:36:53;;;;;;;7.70;4.57;;;20.20;33.40;;;;;;5099747;28;20477;-86
2021/05/28 10:39:21;;;;;;;11.77;4.27;;;20.30;32.00;;;;;;5101514;28;20442;-88
2021/05/28 10:41:48;;;;;;;10.13;5.03;;;20.60;31.30;;;;;;5101291;28;20430;-86
2021/05/28 10:44:22;;;;;;;6.13;4.33;;;20.60;31.10;;;;;;5101792;28;20491;-86
2021/05/28 10:46:54;;;;;;;9.90;5.03;;;20.80;30.50;;;;;;5102260;28;20430;-86
2021/05/28 10:49:36;;;;;;;7.83;4.80;;;20.50;32.00;;;;;;5102056;28;20527;-87
2021/05/28 10:52:06;;;;;;;11.10;5.53;;;20.10;32.60;;;;;;5103392;28;20427;-87
2021/05/28 10:54:39;;;;;;;9.87;4.37;;;20.40;33.60;;;;;;5102329;28;20438;-86
2021/05/28 10:57:47;;;;;;;6.07;4.77;;;21.00;33.10;;;;;;5103642;28;20466;-87
2021/05/28 11:00:26;;;;;;;7.10;5.20;;;20.70;32.30;;;;;;5086092;28;20458;-87
2021/05/28 11:02:58;;;;;;;11.47;5.30;;;21.30;31.00;;;;;;5113231;28;20466;-86
2021/05/28 11:05:45;;;;;;;5.87;4.43;;;21.70;31.30;;;;;;5114539;28;20418;-86
2021/05/28 11:08:48;;;;;;;8.40;4.67;;;22.20;30.00;;;;;;5119701;28;20482;-86
2021/05/28 11:11:57;;;;;;;11.40;4.43;;;22.30;29.50;;;;;;5109035;28;20498;-86
2021/05/28 11:14:25;;;;;;;9.37;5.20;;;22.00;30.10;;;;;;5114085;28;20940;-86
2021/05/28 11:17:18;;;;;;;7.80;4.80;;;21.90;29.80;;;;;;5112986;28;20470;-86
2021/05/28 11:19:51;;;;;;;7.10;4.00;;;21.30;30.40;;;;;;5120203;28;20526;-86
2021/05/28 11:22:30;;;;;;;7.63;4.40;;;20.70;30.90;;;;;;5119715;28;20471;-85
2021/05/28 11:25:00;;;;;;;7.97;5.00;;;20.50;31.20;;;;;;5117530;28;20426;-85
2021/05/28 11:27:51;;;;;;;13.40;4.00;;;21.20;30.90;;;;;;5099619;28;20452;-85
2021/05/28 11:30:27;;;;;;;6.23;4.30;;;21.40;31.00;;;;;;5098153;28;20454;-86
2021/05/28 11:32:53;;;;;;;8.23;4.70;;;21.00;30.70;;;;;;5098279;28;20548;-85
2021/05/28 11:35:21;;;;;;;14.97;5.00;;;20.60;31.60;;;;;;5102855;28;21006;-86
2021/05/28 11:37:54;;;;;;;9.03;4.90;;;20.60;31.60;;;;;;5102711;28;20478;-86
2021/05/28 11:40:23;;;;;;;11.67;5.30;;;20.50;32.40;;;;;;5101871;28;20442;-86
2021/05/28 11:42:50;;;;;;;7.40;4.60;;;20.30;32.90;;;;;;5102033;28;20463;-85
2021/05/28 11:45:19;;;;;;;10.00;5.90;;;19.90;33.30;;;;;;5098922;28;20453;-86
2021/05/28 11:47:46;;;;;;;8.83;5.27;;;20.10;33.40;;;;;;5096558;28;20530;-85
2021/05/28 11:50:16;;;;;;;11.00;5.47;;;19.50;33.60;;;;;;5096222;28;20486;-86
2021/05/28 11:52:55;;;;;;;8.03;4.33;;;19.30;33.80;;;;;;5096305;28;20470;-86
2021/05/28 11:55:21;;;;;;;13.20;4.93;;;19.50;33.90;;;;;;5096552;28;20455;-86
2021/05/28 11:57:57;;;;;;;8.97;4.80;;;19.40;33.90;;;;;;5095606;28;20904;-86
2021/05/28 12:00:24;;;;;;;13.83;4.10;;;20.00;32.30;;;;;;5096071;28;20480;-86
2021/05/28 12:02:56;;;;;;;7.60;4.73;;;20.10;32.50;;;;;;5095998;28;20481;-87
2021/05/28 12:05:30;;;;;;;6.47;4.97;;;19.80;33.10;;;;;;5097199;28;20443;-87
2021/05/28 12:07:59;;;;;;;7.13;5.20;;;19.50;33.00;;;;;;5097116;28;20445;-88
2021/05/28 12:10:26;;;;;;;9.33;4.87;;;19.50;33.70;;;;;;5096504;28;20470;-88
2021/05/28 12:13:01;;;;;;;7.30;4.40;;;20.00;32.70;;;;;;5097011;28;20604;-89
2021/05/28 12:15:30;;;;;;;7.37;4.70;;;20.70;31.80;;;;;;5096528;28;20513;-88
2021/05/28 12:17:59;;;;;;;9.27;4.80;;;21.00;30.70;;;;;;5095485;28;20474;-87
2021/05/28 12:20:27;;;;;;;14.97;5.10;;;20.00;32.00;;;;;;5096310;28;20446;-88
2021/05/28 12:23:09;;;;;;;8.23;4.27;;;19.90;32.10;;;;;;5095833;28;20902;-85
2021/05/28 12:25:38;;;;;;;7.77;5.10;;;19.50;32.50;;;;;;5095434;28;20437;-86
2021/05/28 12:28:14;;;;;;;9.57;4.30;;;19.40;33.10;;;;;;5096242;28;20503;-86
2021/05/28 12:30:43;;;;;;;7.73;4.20;;;20.40;32.30;;;;;;5095661;28;20458;-86
2021/05/28 12:33:11;;;;;;;7.70;4.10;;;21.30;30.30;;;;;;5095524;28;20971;-86
2021/05/28 12:35:39;;;;;;;8.00;4.23;;;21.00;30.60;;;;;;5095374;28;20445;-86
2021/05/28 12:38:08;;;;;;;8.93;4.33;;;20.50;30.30;;;;;;5095574;28;20446;-86
2021/05/28 12:40:36;;;;;;;18.03;3.87;;;20.20;31.00;;;;;;5095313;28;20868;-86
2021/05/28 12:43:04;;;;;;;6.83;4.20;;;20.10;30.40;;;;;;5096169;28;20553;-86
2021/05/28 12:45:36;;;;;;;4.20;3.87;;;19.80;32.00;;;;;;5095667;28;20812;-86
2021/05/28 12:48:03;;;;;;;6.93;3.73;;;20.20;31.30;;;;;;5094753;28;20438;-85
2021/05/28 12:50:33;;;;;;;6.57;3.87;;;20.90;29.70;;;;;;5096427;28;20473;-86